Data for 12/19/2017

Time Sea-Level Adjusted Pressure Absolute Pressure Temperature Relative Humidity Dew Point   
(mb) (inHg) (mb) (inHg) (C) (F) (%) (C) (F)
00:05 1016 30 845 24.95 4.4 40 54 -4.2 24.5
00:10 1016 30 845 24.95 4.4 39.9 55 -4 24.8
00:15 1016 30 845 24.95 4.3 39.7 54 -4.3 24.3
00:20 1016 30 845 24.95 4.4 39.9 54 -4.1 24.6
00:25 1016 30 845 24.95 4.3 39.7 55 -4 24.8
00:30 1016 30 845 24.95 4.3 39.7 53 -4.4 24.1
00:35 1016 30 845 24.95 4.5 40 53 -4.4 24.1
00:40 1016 30 845 24.95 4.5 40.1 54 -4 24.7
00:45 1016 30 845 24.95 4.4 39.9 54 -4.1 24.6
00:50 1016 30 845 24.95 4.3 39.8 54 -4.2 24.4
00:55 1016 30 845 24.95 4.3 39.7 56 -3.8 25.1
01:00 1016 30 845 24.95 4 39.2 57 -3.8 25.1
01:05 1016 30 845 24.95 3.8 38.8 56 -4.1 24.6
01:10 1016 30 845 24.95 3.9 39 57 -4 24.9
01:15 1016 30 845 24.95 3.8 38.9 56 -4.1 24.6
01:20 1016 30 845 24.95 3.9 39 56 -4 24.8
01:25 1016 30 845 24.95 3.9 39 57 -3.8 25.1
01:30 1016 30 845 24.95 3.9 39 56 -4 24.8
01:35 1016 30 845 24.95 4.1 39.4 55 -4.2 24.4
01:40 1016 30 845 24.95 4.4 39.8 54 -4.3 24.3
01:45 1016 30 845 24.95 4.5 40.1 52 -4.4 24.1
01:50 1016 30 845 24.95 4.6 40.3 53 -4.2 24.5
01:55 1016 30 845 24.95 4.6 40.2 54 -3.9 25
02:00 1015 29.97 845 24.95 4.4 40 55 -3.8 25.2
02:05 1016 30 845 24.95 4.4 40 55 -3.9 24.9
02:10 1015 29.97 845 24.95 4.6 40.3 53 -4.3 24.3
02:15 1015 29.97 845 24.95 4.9 40.8 51 -4.4 24
02:20 1015 29.97 845 24.95 5.1 41.2 51 -4.3 24.3
02:25 1015 29.97 845 24.95 5.1 41.2 51 -4.2 24.4
02:30 1015 29.97 845 24.95 5.4 41.7 49 -4.6 23.7
02:35 1015 29.97 845 24.95 5.5 41.9 49 -4.4 24
02:40 1015 29.97 844 24.92 5.4 41.8 50 -4.2 24.4
02:45 1015 29.97 844 24.92 5.4 41.7 49 -4.6 23.8
02:50 1015 29.97 844 24.92 5.5 41.8 48 -4.7 23.5
02:55 1015 29.97 844 24.92 5.4 41.7 49 -4.5 23.9
03:00 1015 29.97 844 24.92 5.4 41.8 48 -4.6 23.6
03:05 1015 29.97 844 24.92 5.5 41.9 47 -4.8 23.4
03:10 1015 29.97 844 24.92 5.6 42.2 46 -5.1 22.8
03:15 1015 29.97 844 24.92 5.7 42.3 47 -4.7 23.5
03:20 1015 29.97 844 24.92 5.6 42.1 46 -5.1 22.9
03:25 1015 29.97 844 24.92 5.8 42.4 46 -5 22.9
03:30 1015 29.97 844 24.92 5.8 42.4 46 -4.9 23.1
03:35 1015 29.97 844 24.92 5.8 42.5 45 -5.3 22.5
03:40 1015 29.97 844 24.92 6 42.8 45 -5.2 22.7
03:45 1015 29.97 844 24.92 5.9 42.6 46 -4.8 23.3
03:50 1015 29.97 844 24.92 5.7 42.3 45 -5.2 22.7
03:55 1015 29.97 844 24.92 5.8 42.5 45 -5.2 22.6
04:00 1015 29.97 844 24.92 5.8 42.5 46 -5 23
04:05 1015 29.97 844 24.92 5.7 42.3 47 -4.7 23.5
04:10 1015 29.97 844 24.92 5.7 42.2 46 -5.1 22.8
04:15 1015 29.97 844 24.92 5.7 42.3 46 -5 23
04:20 1015 29.97 844 24.92 5.7 42.2 46 -5 23.1
04:25 1014 29.94 844 24.92 5.7 42.2 46 -5.1 22.8
04:30 1014 29.94 844 24.92 5.6 42.1 47 -4.8 23.4
04:35 1014 29.94 844 24.92 5.4 41.7 47 -5 22.9
04:40 1014 29.94 844 24.92 5.5 42 46 -5 22.9
04:45 1014 29.94 844 24.92 5.7 42.2 46 -5 22.9
04:50 1015 29.97 844 24.92 5.7 42.2 46 -5 22.9
04:55 1015 29.97 844 24.92 5.6 42.1 48 -4.6 23.7
05:00 1015 29.97 844 24.92 5.4 41.7 49 -4.3 24.2
05:05 1015 29.97 844 24.92 5.1 41.3 52 -4 24.8
05:10 1015 29.97 844 24.92 4.8 40.7 53 -4.1 24.7
05:15 1015 29.97 844 24.92 4.8 40.6 51 -4.4 24
05:20 1015 29.97 844 24.92 4.8 40.7 50 -4.6 23.7
05:25 1015 29.97 844 24.92 5 41 50 -4.6 23.8
05:30 1014 29.94 844 24.92 5 41 50 -4.4 24.1
05:35 1014 29.94 844 24.92 5.1 41.2 49 -4.8 23.4
05:40 1014 29.94 844 24.92 5.3 41.5 49 -4.5 23.9
05:45 1014 29.94 843 24.89 5.2 41.4 50 -4.4 24.1
05:50 1014 29.94 843 24.89 5.1 41.3 50 -4.3 24.2
05:55 1014 29.94 844 24.92 5.1 41.1 51 -4.1 24.6
06:00 1014 29.94 843 24.89 5.1 41.1 51 -4.2 24.5
06:05 1014 29.94 843 24.89 5 41 50 -4.5 24
06:10 1014 29.94 843 24.89 5 41.1 52 -3.9 24.9
06:15 1014 29.94 843 24.89 4.9 40.9 52 -4.1 24.5
06:20 1014 29.94 843 24.89 4.7 40.5 53 -4.1 24.6
06:25 1014 29.94 843 24.89 4.8 40.6 50 -4.7 23.5
06:30 1014 29.94 843 24.89 5.2 41.3 47 -5.1 22.8
06:35 1014 29.94 843 24.89 5.6 42 45 -5.5 22.1
06:40 1014 29.94 843 24.89 5.9 42.5 44 -5.5 22.1
06:45 1014 29.94 843 24.89 5.9 42.7 44 -5.4 22.3
06:50 1014 29.94 843 24.89 6 42.8 43 -5.6 22
06:55 1014 29.94 843 24.89 6 42.8 44 -5.4 22.3
07:00 1014 29.94 843 24.89 5.8 42.5 45 -5.1 22.8
07:05 1014 29.94 843 24.89 5.7 42.2 44 -5.6 21.9
07:10 1014 29.94 843 24.89 5.9 42.6 44 -5.6 22
07:15 1014 29.94 843 24.89 5.9 42.6 44 -5.5 22.1
07:20 1014 29.94 843 24.89 5.8 42.5 43 -5.7 21.8
07:25 1014 29.94 843 24.89 5.8 42.5 44 -5.3 22.4
07:30 1014 29.94 843 24.89 5.8 42.5 44 -5.6 21.9
07:35 1014 29.94 843 24.89 5.9 42.5 44 -5.5 22.1
07:40 1014 29.94 843 24.89 5.8 42.4 45 -5.2 22.6
07:45 1014 29.94 843 24.89 5.9 42.6 43 -5.8 21.6
07:50 1014 29.94 843 24.89 6 42.7 43 -5.5 22
07:55 1014 29.94 843 24.89 5.9 42.6 45 -5.3 22.5
08:00 1014 29.94 843 24.89 5.7 42.3 45 -5.4 22.3
08:05 1014 29.94 843 24.89 5.8 42.4 43 -5.8 21.6
08:10 1014 29.94 843 24.89 6 42.7 42 -6 21.3
08:15 1014 29.94 843 24.89 6 42.8 42 -5.9 21.5
08:20 1014 29.94 843 24.89 6 42.8 43 -5.8 21.6
08:25 1014 29.94 843 24.89 5.9 42.6 43 -5.6 21.9
08:30 1014 29.94 843 24.89 6.1 42.9 41 -6.1 21.1
08:35 1014 29.94 843 24.89 6.1 42.9 42 -5.9 21.4
08:40 1014 29.94 843 24.89 5.9 42.7 44 -5.5 22.1
08:45 1014 29.94 843 24.89 5.8 42.5 44 -5.5 22.2
08:50 1014 29.94 843 24.89 5.9 42.6 44 -5.5 22
08:55 1014 29.94 843 24.89 5.8 42.4 46 -5 23
09:00 1013 29.91 843 24.89 5.5 41.9 45 -5.4 22.2
09:05 1014 29.94 843 24.89 5.7 42.2 45 -5.4 22.2
09:10 1014 29.94 843 24.89 5.7 42.3 46 -5.2 22.7
09:15 1014 29.94 843 24.89 5.5 41.9 47 -5 22.9
09:20 1014 29.94 843 24.89 5.4 41.8 45 -5.6 21.9
09:25 1014 29.94 843 24.89 5.6 42.1 44 -5.8 21.6
09:30 1014 29.94 843 24.89 5.7 42.2 44 -5.7 21.7
09:35 1014 29.94 843 24.89 5.8 42.4 42 -6.1 21
09:40 1013 29.91 843 24.89 5.9 42.6 42 -5.9 21.3
09:45 1013 29.91 843 24.89 5.9 42.6 43 -5.7 21.8
09:50 1013 29.91 843 24.89 5.9 42.6 43 -5.8 21.6
09:55 1013 29.91 843 24.89 5.9 42.7 43 -5.7 21.8
10:00 1013 29.91 842 24.86 6 42.8 40 -6.5 20.4
10:05 1013 29.91 842 24.86 6.2 43.1 43 -5.6 21.9
10:10 1013 29.91 842 24.86 6.1 43.1 43 -5.5 22.1
10:15 1013 29.91 842 24.86 6.2 43.1 43 -5.5 22
10:20 1013 29.91 842 24.86 6.2 43.2 43 -5.5 22.1
10:25 1013 29.91 842 24.86 6.2 43.2 43 -5.6 22
10:30 1013 29.91 842 24.86 6.1 42.9 44 -5.1 22.7
10:35 1013 29.91 842 24.86 5.8 42.5 47 -4.6 23.8
10:40 1012 29.88 842 24.86 5.8 42.4 46 -4.8 23.3
10:45 1012 29.88 842 24.86 5.7 42.2 47 -4.8 23.4
10:50 1012 29.88 841 24.83 5.7 42.2 47 -4.7 23.6
10:55 1012 29.88 841 24.83 5.7 42.2 44 -5.8 21.6
11:00 1012 29.88 841 24.83 6 42.8 43 -5.5 22
11:05 1012 29.88 841 24.83 6 42.8 43 -5.5 22
11:10 1012 29.88 841 24.83 6.1 43 42 -5.9 21.3
11:15 1012 29.88 841 24.83 6.3 43.3 42 -5.6 21.9
11:20 1012 29.88 841 24.83 6.2 43.1 43 -5.4 22.3
11:25 1012 29.88 841 24.83 6.1 43 42 -5.8 21.6
11:30 1012 29.88 841 24.83 6.1 42.9 43 -5.7 21.7
11:35 1011 29.85 841 24.83 6.1 43 44 -5.3 22.4
11:40 1011 29.85 841 24.83 6 42.9 43 -5.5 22.1
11:45 1011 29.85 841 24.83 6 42.7 44 -5.4 22.4
11:50 1011 29.85 841 24.83 6 42.9 44 -5.2 22.7
11:55 1011 29.85 840 24.81 6 42.8 44 -5.3 22.4
12:00 1011 29.85 840 24.81 6 42.9 43 -5.5 22.2
12:05 1011 29.85 840 24.81 6 42.8 44 -5.4 22.3
12:10 1011 29.85 840 24.81 6 42.7 45 -5.2 22.7
12:15 1011 29.85 840 24.81 5.9 42.7 45 -5.1 22.8
12:20 1011 29.85 840 24.81 5.9 42.6 46 -4.9 23.2
12:25 1011 29.85 840 24.81 5.9 42.6 46 -5 23
12:30 1011 29.85 840 24.81 6 42.7 46 -4.7 23.5
12:35 1011 29.85 840 24.81 6 42.8 46 -4.7 23.5
12:40 1011 29.85 840 24.81 5.8 42.5 46 -4.8 23.4
12:45 1011 29.85 840 24.81 5.7 42.3 46 -5 23
12:50 1011 29.85 840 24.81 5.7 42.3 47 -4.8 23.4
12:55 1011 29.85 840 24.81 5.7 42.2 46 -4.9 23.2
13:00 1011 29.85 840 24.81 5.6 42.1 47 -4.9 23.2
13:05 1011 29.85 840 24.81 5.6 42.1 47 -4.8 23.4
13:10 1011 29.85 840 24.81 5.7 42.3 46 -4.9 23.2
13:15 1011 29.85 840 24.81 5.8 42.5 47 -4.7 23.5
13:20 1011 29.85 840 24.81 5.8 42.5 46 -4.7 23.5
13:25 1011 29.85 840 24.81 5.7 42.3 48 -4.5 24
13:30 1011 29.85 840 24.81 5.6 42.2 48 -4.4 24.1
13:35 1011 29.85 840 24.81 5.7 42.3 48 -4.5 23.9
13:40 1011 29.85 840 24.81 5.8 42.5 49 -4.2 24.5
13:45 1011 29.85 840 24.81 5.7 42.2 49 -4.1 24.6
13:50 1011 29.85 840 24.81 5.6 42.1 49 -4.2 24.4
13:55 1011 29.85 840 24.81 5.6 42.1 50 -4.1 24.7
14:00 1011 29.85 840 24.81 5.6 42.1 50 -4 24.8
14:05 1011 29.85 840 24.81 5.6 42 50 -4.1 24.6
14:10 1011 29.85 840 24.81 5.6 42 50 -4 24.8
14:15 1011 29.85 840 24.81 5.5 42 51 -3.8 25.2
14:20 1011 29.85 840 24.81 5.4 41.7 51 -3.9 25.1
14:25 1011 29.85 840 24.81 5.3 41.5 52 -3.7 25.3
14:30 1011 29.85 840 24.81 5.2 41.4 52 -3.9 25.1
14:35 1011 29.85 840 24.81 5.2 41.4 52 -3.7 25.3
14:40 1011 29.85 840 24.81 5.2 41.4 52 -3.9 24.9
14:45 1011 29.85 840 24.81 5.2 41.4 51 -4.1 24.6
14:50 1011 29.85 840 24.81 5.3 41.5 53 -3.6 25.5
14:55 1011 29.85 840 24.81 5.2 41.3 52 -3.7 25.3
15:00 1011 29.85 840 24.81 5.2 41.4 51 -4 24.9
15:05 1011 29.85 840 24.81 5.4 41.6 48 -4.7 23.5
15:10 1011 29.85 840 24.81 5.6 42.1 48 -4.6 23.8
15:15 1011 29.85 840 24.81 5.7 42.3 47 -4.7 23.5
15:20 1010 29.83 840 24.81 5.8 42.5 48 -4.4 24
15:25 1010 29.83 840 24.81 5.8 42.4 47 -4.6 23.7
15:30 1010 29.83 839 24.78 5.7 42.3 48 -4.5 23.9
15:35 1010 29.83 839 24.78 5.7 42.2 49 -4.2 24.5
15:40 1010 29.83 839 24.78 5.1 41.3 51 -4.1 24.7
15:45 1010 29.83 839 24.78 4.8 40.6 55 -3.6 25.6
15:50 1010 29.83 839 24.78 4.4 39.8 57 -3.5 25.7
15:55 1010 29.83 839 24.78 4 39.1 59 -3.4 26
16:00 1010 29.83 839 24.78 3.7 38.7 60 -3.5 25.8
16:05 1010 29.83 839 24.78 3.6 38.5 59 -3.6 25.5
16:10 1010 29.83 839 24.78 3.7 38.6 58 -3.8 25.2
16:15 1010 29.83 839 24.78 3.7 38.7 58 -3.8 25.2
16:20 1010 29.83 839 24.78 3.8 38.8 58 -3.8 25.2
16:25 1010 29.83 839 24.78 3.8 38.8 56 -4.2 24.5
16:30 1010 29.83 839 24.78 4.9 40.8 46 -5.9 21.4
16:35 1010 29.83 839 24.78 5.4 41.8 49 -4.4 24
16:40 1010 29.83 839 24.78 5.2 41.3 47 -5.2 22.6
16:45 1010 29.83 839 24.78 5.8 42.4 44 -5.6 21.9
16:50 1010 29.83 839 24.78 5.8 42.5 44 -5.6 22
16:55 1009 29.8 839 24.78 5.9 42.6 44 -5.6 22
17:00 1009 29.8 839 24.78 5.9 42.6 44 -5.4 22.2
17:05 1009 29.8 838 24.75 5.8 42.4 44 -5.6 21.9
17:10 1009 29.8 838 24.75 5.9 42.7 43 -5.8 21.6
17:15 1009 29.8 839 24.78 6 42.7 42 -6 21.2
17:20 1009 29.8 838 24.75 6 42.8 41 -6.2 20.9
17:25 1009 29.8 838 24.75 6 42.7 41 -6.2 20.8
17:30 1009 29.8 838 24.75 5.9 42.6 43 -5.7 21.7
17:35 1009 29.8 838 24.75 5.9 42.7 42 -5.9 21.3
17:40 1009 29.8 838 24.75 6.1 43 41 -6.2 20.8
17:45 1009 29.8 838 24.75 6.1 42.9 42 -5.8 21.5
17:50 1009 29.8 838 24.75 6 42.8 41 -6.3 20.6
17:55 1009 29.8 838 24.75 6 42.9 39 -6.8 19.7
18:00 1009 29.8 838 24.75 6.1 43 39 -6.7 20
18:05 1009 29.8 838 24.75 6.1 42.9 40 -6.4 20.5
18:10 1009 29.8 838 24.75 6 42.8 41 -6.2 20.8
18:15 1009 29.8 838 24.75 6 42.7 41 -6.2 20.9
18:20 1008 29.77 838 24.75 5.8 42.4 42 -6 21.2
18:25 1008 29.77 838 24.75 5.7 42.2 43 -6 21.1
18:30 1008 29.77 838 24.75 5.7 42.2 42 -6.2 20.9
18:35 1008 29.77 838 24.75 5.7 42.2 42 -6.2 20.8
18:40 1008 29.77 838 24.75 5.8 42.4 44 -5.5 22
18:45 1008 29.77 838 24.75 5.3 41.5 44 -6 21.3
18:50 1008 29.77 837 24.72 5.3 41.6 44 -6.1 21.1
18:55 1008 29.77 838 24.75 5.4 41.7 46 -5.4 22.3
19:00 1008 29.77 838 24.75 5 41 48 -5.2 22.7
19:05 1008 29.77 838 24.75 4.7 40.4 48 -5.3 22.4
19:10 1009 29.8 838 24.75 4.5 40.2 51 -4.7 23.6
19:15 1009 29.8 838 24.75 4.3 39.7 52 -4.6 23.7
19:20 1009 29.8 838 24.75 4.1 39.4 51 -5 23
19:25 1009 29.8 838 24.75 4.1 39.4 53 -4.6 23.8
19:30 1009 29.8 838 24.75 4.2 39.5 52 -4.7 23.5
19:35 1008 29.77 838 24.75 4.4 39.9 44 -6.9 19.5
19:40 1008 29.77 838 24.75 5.6 42 44 -5.8 21.6
19:45 1008 29.77 838 24.75 5.5 41.9 43 -5.9 21.3
19:50 1008 29.77 837 24.72 5.2 41.4 46 -5.6 22
19:55 1008 29.77 837 24.72 5.3 41.5 44 -6.1 20.9
20:00 1008 29.77 837 24.72 5.7 42.3 42 -6.3 20.7
20:05 1008 29.77 837 24.72 6.1 42.9 42 -5.8 21.5
20:10 1008 29.77 837 24.72 6 42.8 44 -5.4 22.2
20:15 1008 29.77 837 24.72 5.9 42.6 43 -5.7 21.8
20:20 1008 29.77 837 24.72 5.7 42.3 43 -5.8 21.5
20:25 1008 29.77 837 24.72 6.1 42.9 39 -7 19.5
20:30 1008 29.77 837 24.72 6.4 43.5 42 -5.7 21.7
20:35 1008 29.77 837 24.72 6.1 43 42 -5.9 21.4
20:40 1008 29.77 837 24.72 6 42.7 43 -5.6 21.9
20:45 1008 29.77 837 24.72 5.8 42.5 42 -6.1 21
20:50 1008 29.77 837 24.72 6.1 43 37 -7.6 18.2
20:55 1008 29.77 837 24.72 6.3 43.3 37 -7.2 19
21:00 1008 29.77 837 24.72 6.3 43.3 36 -7.6 18.2
21:05 1008 29.77 837 24.72 6.2 43.1 37 -7.5 18.5
21:10 1008 29.77 837 24.72 6.3 43.3 35 -8.1 17.4
21:15 1007 29.74 837 24.72 6.3 43.3 32 -9.1 15.7
21:20 1007 29.74 837 24.72 6.3 43.3 34 -8.4 16.9
21:25 1007 29.74 837 24.72 6.4 43.5 33 -8.9 15.9
21:30 1007 29.74 837 24.72 6.6 43.9 34 -8.3 17.1
21:35 1007 29.74 837 24.72 6.5 43.7 35 -7.8 17.9
21:40 1007 29.74 837 24.72 6.4 43.6 34 -8.3 17.1
21:45 1007 29.74 837 24.72 6.5 43.7 34 -8.1 17.4
21:50 1007 29.74 837 24.72 6.4 43.5 35 -7.8 17.9
21:55 1007 29.74 837 24.72 6.3 43.4 38 -7.1 19.2
22:00 1007 29.74 836 24.69 6.3 43.3 37 -7.3 18.9
22:05 1007 29.74 836 24.69 6.3 43.4 36 -7.6 18.3
22:10 1007 29.74 836 24.69 6.4 43.5 36 -7.5 18.4
22:15 1007 29.74 836 24.69 6.4 43.5 37 -7.2 19
22:20 1007 29.74 836 24.69 6.5 43.7 38 -6.9 19.6
22:25 1007 29.74 836 24.69 6.3 43.3 37 -7.2 19
22:30 1007 29.74 836 24.69 6.2 43.2 36 -7.6 18.4
22:35 1007 29.74 836 24.69 6.4 43.6 34 -8.4 16.9
22:40 1007 29.74 836 24.69 6.6 43.9 37 -7.2 19
22:45 1007 29.74 836 24.69 6.5 43.6 37 -7.3 18.8
22:50 1007 29.74 836 24.69 6.4 43.6 38 -6.9 19.6
22:55 1007 29.74 836 24.69 6.3 43.3 37 -7.5 18.5
23:00 1007 29.74 836 24.69 6.4 43.6 36 -7.6 18.4
23:05 1007 29.74 836 24.69 6.5 43.7 38 -6.7 19.9
23:10 1007 29.74 836 24.69 6.3 43.4 38 -7.1 19.2
23:15 1007 29.74 836 24.69 6.4 43.5 37 -7.1 19.2
23:20 1007 29.74 836 24.69 6.4 43.5 38 -7 19.3
23:25 1006 29.71 836 24.69 6.3 43.4 39 -6.6 20
23:30 1006 29.71 836 24.69 6.1 43 40 -6.6 20.1
23:35 1006 29.71 836 24.69 6.1 43 39 -6.7 19.9
23:40 1006 29.71 836 24.69 6.1 42.9 41 -6.3 20.7
23:45 1006 29.71 836 24.69 6 42.8 42 -6.1 21
23:50 1006 29.71 835 24.66 6 42.9 42 -6 21.3
23:55 1006 29.71 835 24.66 6.2 43.2 40 -6.3 20.7
24:00 1006 29.71 835 24.66 6.1 42.9 43 -5.7 21.7